Time;durP1;ratioP1;P1;durP2;ratioP2;P2;SDS_P1;SDS_P2;PMS_P1;PMS_P2;Temp;Humidity;BMP_temperature;BMP_pressure;BME280_temperature;BME280_humidity;BME280_pressure;Samples;Min_cycle;Max_cycle;Signal;HPM_P1;HPM_P2
2023/08/11 00:01:20;;;;;;;3.05;2.08;;;;;;;;;;5054459;28;20415;-86
2023/08/11 00:03:45;;;;;;;5.45;2.50;;;;;;;;;;5054422;28;20025;-87
2023/08/11 00:06:11;;;;;;;7.18;2.50;;;;;;;;;;5052440;28;20036;-86
2023/08/11 00:08:38;;;;;;;3.20;2.40;;;;;;;;;;5049530;28;20025;-86
2023/08/11 00:11:04;;;;;;;4.82;2.70;;;;;;;;;;5053549;28;20127;-86
2023/08/11 00:13:30;;;;;;;5.22;2.40;;;;;;;;;;5053648;28;20117;-86
2023/08/11 00:15:56;;;;;;;6.22;2.25;;;;;;;;;;5056633;28;20029;-86
2023/08/11 00:18:21;;;;;;;6.85;2.20;;;;;;;;;;5055311;28;20044;-85
2023/08/11 00:20:47;;;;;;;4.15;2.42;;;;;;;;;;5052512;28;20025;-86
2023/08/11 00:23:12;;;;;;;3.30;2.47;;;;;;;;;;5052284;28;20025;-86
2023/08/11 00:25:38;;;;;;;8.95;2.60;;;;;;;;;;5051224;28;20148;-88
2023/08/11 00:28:03;;;;;;;5.30;2.40;;;;;;;;;;5051553;28;20029;-86
2023/08/11 00:30:30;;;;;;;4.57;2.50;;;;;;;;;;5053951;28;20123;-85
2023/08/11 00:32:55;;;;;;;3.17;2.20;;;;;;;;;;5051936;28;20056;-85
2023/08/11 00:35:23;;;;;;;7.30;2.53;;;;;;;;;;5052251;28;20033;-86
2023/08/11 00:37:50;;;;;;;6.00;2.92;;;;;;;;;;5052044;28;20028;-85
2023/08/11 00:40:15;;;;;;;3.65;2.40;;;;;;;;;;5052252;28;20464;-86
2023/08/11 00:42:41;;;;;;;2.90;2.30;;;;;;;;;;5051782;28;20115;-86
2023/08/11 00:45:08;;;;;;;4.45;2.42;;;;;;;;;;5053051;28;20029;-86
2023/08/11 00:47:35;;;;;;;3.08;2.38;;;;;;;;;;5035089;28;20020;-85
2023/08/11 00:50:02;;;;;;;4.00;2.58;;;;;;;;;;5051982;28;20029;-86
2023/08/11 00:52:28;;;;;;;3.47;2.50;;;;;;;;;;5046890;28;20025;-85
2023/08/11 00:54:56;;;;;;;4.00;2.30;;;;;;;;;;5052090;28;20029;-85
2023/08/11 00:57:21;;;;;;;3.50;2.40;;;;;;;;;;5054821;28;20538;-86
2023/08/11 00:59:48;;;;;;;4.00;2.30;;;;;;;;;;5051993;28;20028;-86
2023/08/11 01:02:15;;;;;;;3.20;2.40;;;;;;;;;;5053022;28;20025;-86
2023/08/11 01:04:41;;;;;;;3.63;2.50;;;;;;;;;;5051565;28;20025;-85
2023/08/11 01:07:27;;;;;;;6.68;2.60;;;;;;;;;;5051086;28;20029;-86
2023/08/11 01:10:06;;;;;;;3.17;2.25;;;;;;;;;;5049689;28;20032;-85
2023/08/11 01:13:02;;;;;;;5.18;2.40;;;;;;;;;;5052393;28;20029;-85
2023/08/11 01:15:37;;;;;;;3.78;2.50;;;;;;;;;;5050240;28;20036;-86
2023/08/11 01:18:05;;;;;;;4.28;2.40;;;;;;;;;;5052027;28;20100;-85
2023/08/11 01:20:32;;;;;;;2.95;2.08;;;;;;;;;;5048040;28;20029;-86
2023/08/11 01:22:59;;;;;;;5.78;2.80;;;;;;;;;;5056074;28;20021;-85
2023/08/11 01:25:25;;;;;;;3.78;2.50;;;;;;;;;;5051115;28;20560;-86
2023/08/11 01:28:00;;;;;;;3.58;2.38;;;;;;;;;;5050691;28;20032;-85
2023/08/11 01:30:27;;;;;;;3.50;2.30;;;;;;;;;;5055688;28;20480;-86
2023/08/11 01:32:53;;;;;;;3.35;2.40;;;;;;;;;;5052614;28;20029;-85
2023/08/11 01:35:22;;;;;;;6.53;2.47;;;;;;;;;;5052574;28;20025;-85
2023/08/11 01:37:48;;;;;;;4.85;2.30;;;;;;;;;;5052499;28;20071;-88
2023/08/11 01:40:14;;;;;;;3.70;2.60;;;;;;;;;;5050853;28;20498;-86
2023/08/11 01:42:41;;;;;;;2.80;2.17;;;;;;;;;;5052514;28;20211;-86
2023/08/11 01:45:08;;;;;;;3.58;2.30;;;;;;;;;;5051245;28;20486;-85
2023/08/11 01:47:35;;;;;;;3.45;2.30;;;;;;;;;;5031512;28;20033;-85
2023/08/11 01:50:02;;;;;;;3.15;2.15;;;;;;;;;;5051089;28;20037;-86
2023/08/11 01:52:31;;;;;;;5.20;2.47;;;;;;;;;;5052100;28;20047;-85
2023/08/11 01:54:57;;;;;;;5.18;2.40;;;;;;;;;;5053976;28;20029;-86
2023/08/11 01:57:23;;;;;;;4.03;2.50;;;;;;;;;;5050554;28;20092;-86
2023/08/11 01:59:48;;;;;;;2.92;2.30;;;;;;;;;;5038382;28;20101;-86
2023/08/11 02:02:14;;;;;;;3.28;2.35;;;;;;;;;;5050708;28;20392;-86
2023/08/11 02:04:39;;;;;;;3.28;2.40;;;;;;;;;;5056849;28;20091;-86
2023/08/11 02:07:05;;;;;;;5.28;2.30;;;;;;;;;;5055699;28;20391;-86
2023/08/11 02:09:31;;;;;;;3.38;2.63;;;;;;;;;;5054764;28;20491;-86
2023/08/11 02:11:56;;;;;;;3.50;2.33;;;;;;;;;;5051199;28;20033;-85
2023/08/11 02:14:22;;;;;;;4.28;2.47;;;;;;;;;;5045959;28;20036;-86
2023/08/11 02:16:49;;;;;;;4.22;2.50;;;;;;;;;;5054354;28;20124;-86
2023/08/11 02:19:15;;;;;;;4.28;2.60;;;;;;;;;;5055756;28;20452;-89
2023/08/11 02:21:42;;;;;;;4.97;2.47;;;;;;;;;;5056862;28;20384;-85
2023/08/11 02:24:07;;;;;;;3.88;2.50;;;;;;;;;;5049320;28;20353;-85
2023/08/11 02:26:33;;;;;;;7.00;2.15;;;;;;;;;;5055966;28;20040;-85
2023/08/11 02:28:59;;;;;;;6.43;2.50;;;;;;;;;;5053876;28;20043;-85
2023/08/11 02:31:27;;;;;;;3.72;2.60;;;;;;;;;;5037605;28;20511;-86
2023/08/11 02:33:52;;;;;;;4.40;2.42;;;;;;;;;;5055261;28;20476;-86
2023/08/11 02:36:20;;;;;;;3.35;2.30;;;;;;;;;;5054202;28;20035;-86
2023/08/11 02:38:45;;;;;;;3.97;2.38;;;;;;;;;;5056805;28;20091;-87
2023/08/11 02:41:11;;;;;;;3.40;2.50;;;;;;;;;;5055603;28;20032;-85
2023/08/11 02:43:36;;;;;;;4.70;2.65;;;;;;;;;;5055113;28;20029;-85
2023/08/11 02:46:05;;;;;;;4.43;2.67;;;;;;;;;;5053856;28;20563;-86
2023/08/11 02:48:33;;;;;;;5.93;2.50;;;;;;;;;;5053612;28;20484;-86
2023/08/11 02:51:03;;;;;;;4.95;2.70;;;;;;;;;;5060110;28;20035;-85
2023/08/11 02:53:28;;;;;;;3.92;2.47;;;;;;;;;;5039130;28;20033;-86
2023/08/11 02:55:54;;;;;;;3.47;2.70;;;;;;;;;;5053941;28;20025;-85
2023/08/11 02:58:19;;;;;;;4.18;2.80;;;;;;;;;;5053779;28;20066;-86
2023/08/11 03:00:46;;;;;;;3.47;2.65;;;;;;;;;;5055596;28;20020;-85
2023/08/11 03:03:12;;;;;;;6.22;2.85;;;;;;;;;;5055268;28;20025;-88
2023/08/11 03:05:38;;;;;;;4.68;2.45;;;;;;;;;;5053897;28;20025;-86
2023/08/11 03:08:04;;;;;;;5.25;2.53;;;;;;;;;;5053625;28;20049;-85
2023/08/11 03:10:29;;;;;;;7.47;3.50;;;;;;;;;;5053588;28;20035;-85
2023/08/11 03:12:55;;;;;;;4.93;2.80;;;;;;;;;;5057365;28;20167;-87
2023/08/11 03:15:21;;;;;;;4.95;2.72;;;;;;;;;;5049453;28;20087;-85
2023/08/11 03:17:46;;;;;;;4.22;3.08;;;;;;;;;;5053141;28;20503;-88
2023/08/11 03:20:18;;;;;;;4.18;2.65;;;;;;;;;;5053301;28;20036;-85
2023/08/11 03:22:45;;;;;;;3.83;2.95;;;;;;;;;;5054987;28;20037;-85
2023/08/11 03:25:13;;;;;;;3.90;2.83;;;;;;;;;;5049153;28;20021;-86
2023/08/11 03:27:42;;;;;;;6.28;2.92;;;;;;;;;;5052772;28;20116;-85
2023/08/11 03:30:12;;;;;;;4.38;2.95;;;;;;;;;;5053200;28;20075;-86
2023/08/11 03:32:40;;;;;;;4.82;2.92;;;;;;;;;;5051466;28;20049;-85
2023/08/11 03:35:07;;;;;;;3.13;2.50;;;;;;;;;;5054167;28;20112;-85
2023/08/11 03:37:34;;;;;;;2.97;2.40;;;;;;;;;;5052845;28;20048;-85
2023/08/11 03:40:00;;;;;;;4.75;2.90;;;;;;;;;;5052776;28;20112;-85
2023/08/11 03:42:26;;;;;;;4.32;2.70;;;;;;;;;;5052756;28;20461;-85
2023/08/11 03:44:52;;;;;;;3.22;2.60;;;;;;;;;;5052704;28;20484;-85
2023/08/11 03:47:19;;;;;;;5.40;2.70;;;;;;;;;;5052626;28;20060;-85
2023/08/11 03:49:46;;;;;;;4.72;2.55;;;;;;;;;;5052789;28;20082;-85
2023/08/11 03:52:12;;;;;;;5.43;2.50;;;;;;;;;;5054006;28;20033;-85
2023/08/11 03:54:38;;;;;;;3.60;2.58;;;;;;;;;;5054205;28;20021;-86
2023/08/11 03:57:04;;;;;;;8.02;2.42;;;;;;;;;;5056790;28;20035;-86
2023/08/11 03:59:30;;;;;;;4.78;2.63;;;;;;;;;;5036409;28;20519;-85
2023/08/11 04:01:56;;;;;;;3.75;2.47;;;;;;;;;;5060556;28;20025;-85
2023/08/11 04:04:22;;;;;;;5.43;2.60;;;;;;;;;;5053096;28;20166;-86
2023/08/11 04:06:47;;;;;;;6.18;3.30;;;;;;;;;;5054411;28;20043;-86
2023/08/11 04:09:14;;;;;;;5.13;3.90;;;;;;;;;;5052339;28;20033;-85
2023/08/11 04:11:40;;;;;;;6.65;2.90;;;;;;;;;;5053091;28;20028;-86
2023/08/11 04:14:06;;;;;;;3.65;2.78;;;;;;;;;;5056853;28;20032;-86
2023/08/11 04:16:31;;;;;;;6.75;3.38;;;;;;;;;;5055149;28;20078;-86
2023/08/11 04:18:57;;;;;;;4.72;3.30;;;;;;;;;;5058831;28;20028;-85
2023/08/11 04:21:23;;;;;;;5.78;3.40;;;;;;;;;;5053018;28;20021;-86
2023/08/11 04:23:49;;;;;;;6.43;3.15;;;;;;;;;;5053491;28;20098;-85
2023/08/11 04:26:14;;;;;;;4.20;2.97;;;;;;;;;;5052641;28;20492;-86
2023/08/11 04:28:43;;;;;;;6.60;3.55;;;;;;;;;;5050690;28;20151;-86
2023/08/11 04:31:09;;;;;;;5.38;3.28;;;;;;;;;;5051327;28;20021;-85
2023/08/11 04:33:36;;;;;;;4.97;3.35;;;;;;;;;;5035146;28;20033;-85
2023/08/11 04:36:05;;;;;;;5.63;2.97;;;;;;;;;;5049788;28;20041;-86
2023/08/11 04:38:31;;;;;;;4.13;3.15;;;;;;;;;;5054694;28;20079;-86
2023/08/11 04:40:58;;;;;;;5.65;3.10;;;;;;;;;;5049896;28;20029;-85
2023/08/11 04:43:24;;;;;;;5.68;3.28;;;;;;;;;;5052661;28;20025;-86
2023/08/11 04:45:49;;;;;;;5.28;3.35;;;;;;;;;;5051432;28;20029;-86
2023/08/11 04:48:16;;;;;;;4.20;3.20;;;;;;;;;;5056436;28;20429;-85
2023/08/11 04:50:51;;;;;;;8.52;3.17;;;;;;;;;;5033571;28;20033;-87
2023/08/11 04:53:16;;;;;;;4.78;3.35;;;;;;;;;;5021274;28;20404;-85
2023/08/11 04:55:42;;;;;;;6.43;3.22;;;;;;;;;;5050977;28;20033;-85
2023/08/11 04:58:10;;;;;;;4.70;2.90;;;;;;;;;;5050537;28;20048;-85
2023/08/11 05:00:37;;;;;;;4.97;3.22;;;;;;;;;;5051081;28;20029;-85
2023/08/11 05:03:03;;;;;;;5.20;3.20;;;;;;;;;;5052488;28;20461;-85
2023/08/11 05:05:29;;;;;;;4.05;3.08;;;;;;;;;;5052475;28;20033;-85
2023/08/11 05:07:54;;;;;;;3.78;3.00;;;;;;;;;;5051736;28;20115;-85
2023/08/11 05:10:20;;;;;;;4.20;3.15;;;;;;;;;;5059160;28;20033;-85
2023/08/11 05:12:47;;;;;;;5.05;2.78;;;;;;;;;;5052863;28;20075;-85
2023/08/11 05:15:12;;;;;;;4.88;3.38;;;;;;;;;;5052185;28;20069;-86
2023/08/11 05:17:38;;;;;;;7.57;3.20;;;;;;;;;;5050802;28;20493;-86
2023/08/11 05:20:08;;;;;;;5.30;3.47;;;;;;;;;;5049868;28;20037;-85
2023/08/11 05:22:34;;;;;;;4.68;3.00;;;;;;;;;;5052210;28;20036;-85
2023/08/11 05:25:04;;;;;;;4.35;3.30;;;;;;;;;;5051983;28;20596;-85
2023/08/11 05:27:30;;;;;;;3.88;3.00;;;;;;;;;;5051798;28;20132;-86
2023/08/11 05:29:56;;;;;;;5.85;2.95;;;;;;;;;;5052082;28;20107;-85
2023/08/11 05:32:23;;;;;;;4.35;2.92;;;;;;;;;;5034086;28;20029;-86
2023/08/11 05:34:49;;;;;;;5.82;2.97;;;;;;;;;;5054271;28;20068;-85
2023/08/11 05:37:15;;;;;;;4.22;3.13;;;;;;;;;;5051396;28;20098;-85
2023/08/11 05:39:42;;;;;;;6.18;3.10;;;;;;;;;;5055116;28;20045;-85
2023/08/11 05:42:08;;;;;;;5.45;3.15;;;;;;;;;;5055583;28;20345;-85
2023/08/11 05:44:34;;;;;;;4.25;3.00;;;;;;;;;;5053985;28;20538;-86
2023/08/11 05:46:59;;;;;;;7.40;3.20;;;;;;;;;;5055257;28;20049;-85
2023/08/11 05:49:25;;;;;;;4.47;3.15;;;;;;;;;;5054927;28;20550;-85
2023/08/11 05:51:50;;;;;;;7.50;3.22;;;;;;;;;;5055248;28;20037;-86
2023/08/11 05:54:16;;;;;;;7.72;2.85;;;;;;;;;;5055067;28;20119;-84
2023/08/11 05:56:41;;;;;;;3.95;2.80;;;;;;;;;;5054789;28;20029;-85
2023/08/11 05:59:07;;;;;;;4.13;2.90;;;;;;;;;;5054797;28;20033;-85
2023/08/11 06:01:33;;;;;;;3.65;2.85;;;;;;;;;;5054424;28;20361;-84
2023/08/11 06:03:58;;;;;;;3.70;2.85;;;;;;;;;;5054900;28;20039;-85
2023/08/11 06:06:24;;;;;;;4.90;2.92;;;;;;;;;;5055078;28;20029;-85
2023/08/11 06:08:50;;;;;;;5.45;2.80;;;;;;;;;;5053808;28;20190;-83
2023/08/11 06:11:15;;;;;;;4.07;2.70;;;;;;;;;;5054565;28;20032;-85
2023/08/11 06:13:41;;;;;;;5.88;2.78;;;;;;;;;;5051771;28;20033;-86
2023/08/11 06:16:06;;;;;;;4.05;2.65;;;;;;;;;;5053620;28;20032;-85
2023/08/11 06:18:32;;;;;;;4.30;2.78;;;;;;;;;;5052216;28;20039;-85
2023/08/11 06:20:57;;;;;;;3.83;2.70;;;;;;;;;;5053564;28;20485;-86
2023/08/11 06:23:23;;;;;;;4.65;2.80;;;;;;;;;;5053764;28;20033;-85
2023/08/11 06:25:49;;;;;;;4.97;2.78;;;;;;;;;;5053697;28;20040;-86
2023/08/11 06:28:15;;;;;;;3.95;2.60;;;;;;;;;;5051825;28;20032;-86
2023/08/11 06:30:40;;;;;;;3.28;2.40;;;;;;;;;;5053644;28;20037;-87
2023/08/11 06:33:06;;;;;;;4.63;2.70;;;;;;;;;;5053874;28;20032;-86
2023/08/11 06:35:32;;;;;;;4.50;2.90;;;;;;;;;;5051990;28;20064;-86
2023/08/11 06:37:58;;;;;;;3.85;2.75;;;;;;;;;;5053160;28;20060;-86
2023/08/11 06:40:23;;;;;;;4.82;2.58;;;;;;;;;;5053543;28;20075;-86
2023/08/11 06:42:49;;;;;;;4.32;2.47;;;;;;;;;;5053081;28;20061;-86
2023/08/11 06:45:14;;;;;;;4.05;2.72;;;;;;;;;;5052112;28;20115;-86
2023/08/11 06:47:40;;;;;;;3.95;2.47;;;;;;;;;;5053005;28;20040;-86
2023/08/11 06:50:06;;;;;;;4.15;2.80;;;;;;;;;;5052820;28;20037;-86
2023/08/11 06:52:31;;;;;;;5.45;2.85;;;;;;;;;;5053118;28;20041;-86
2023/08/11 06:54:57;;;;;;;5.30;2.50;;;;;;;;;;5053399;28;20040;-87
2023/08/11 06:57:22;;;;;;;5.07;2.17;;;;;;;;;;5051700;28;20384;-87
2023/08/11 06:59:48;;;;;;;3.38;2.40;;;;;;;;;;5053378;28;20108;-87
2023/08/11 07:02:14;;;;;;;4.30;2.60;;;;;;;;;;5053101;28;20435;-86
2023/08/11 07:04:39;;;;;;;10.98;3.00;;;;;;;;;;5051081;28;20048;-86
2023/08/11 07:07:06;;;;;;;3.67;2.45;;;;;;;;;;5054817;28;20032;-87
2023/08/11 07:09:32;;;;;;;3.10;2.50;;;;;;;;;;5049115;28;20559;-87
2023/08/11 07:11:58;;;;;;;4.97;2.53;;;;;;;;;;5051310;28;20033;-86
2023/08/11 07:14:23;;;;;;;4.32;2.28;;;;;;;;;;5052786;28;20082;-87
2023/08/11 07:16:49;;;;;;;3.38;2.58;;;;;;;;;;5052393;28;20028;-88
2023/08/11 07:19:14;;;;;;;4.85;2.60;;;;;;;;;;5052345;28;20250;-88
2023/08/11 07:21:40;;;;;;;3.38;2.40;;;;;;;;;;5051197;28;20025;-88
2023/08/11 07:24:05;;;;;;;5.50;2.65;;;;;;;;;;5052351;28;20535;-88
2023/08/11 07:26:31;;;;;;;7.03;2.65;;;;;;;;;;5052094;28;20036;-88
2023/08/11 07:28:56;;;;;;;4.72;2.40;;;;;;;;;;5053081;28;20442;-87
2023/08/11 07:31:22;;;;;;;4.63;2.47;;;;;;;;;;5053438;28;20044;-88
2023/08/11 07:33:47;;;;;;;3.47;2.20;;;;;;;;;;5053330;28;20029;-87
2023/08/11 07:36:13;;;;;;;3.75;2.30;;;;;;;;;;5053265;28;20120;-86
2023/08/11 07:38:38;;;;;;;2.47;2.20;;;;;;;;;;5051398;28;20036;-86
2023/08/11 07:41:04;;;;;;;8.60;2.40;;;;;;;;;;5052728;28;20120;-86
2023/08/11 07:43:29;;;;;;;2.90;2.25;;;;;;;;;;5052961;28;20040;-86
2023/08/11 07:45:55;;;;;;;3.47;2.17;;;;;;;;;;5053350;28;20033;-85
2023/08/11 07:48:20;;;;;;;3.30;2.40;;;;;;;;;;5052213;28;20074;-86
2023/08/11 07:50:46;;;;;;;2.80;2.35;;;;;;;;;;5051083;28;20075;-86
2023/08/11 07:53:11;;;;;;;2.85;2.35;;;;;;;;;;5051764;28;20078;-86
2023/08/11 07:55:37;;;;;;;3.67;2.25;;;;;;;;;;5051305;28;20033;-86
2023/08/11 07:58:03;;;;;;;4.45;2.38;;;;;;;;;;5051415;28;20365;-86
2023/08/11 08:00:29;;;;;;;3.08;2.33;;;;;;;;;;5051840;28;20033;-85
2023/08/11 08:02:55;;;;;;;2.92;2.10;;;;;;;;;;5051440;28;20550;-86
2023/08/11 08:05:21;;;;;;;3.50;2.40;;;;;;;;;;5053936;28;20048;-86
2023/08/11 08:07:47;;;;;;;3.13;2.13;;;;;;;;;;5062939;28;20439;-85
2023/08/11 08:10:14;;;;;;;3.95;2.30;;;;;;;;;;5054686;28;20063;-85
2023/08/11 08:12:42;;;;;;;3.13;2.17;;;;;;;;;;5052996;28;20041;-86
2023/08/11 08:15:10;;;;;;;3.67;2.45;;;;;;;;;;5050390;28;20492;-86
2023/08/11 08:17:36;;;;;;;3.88;2.33;;;;;;;;;;5051746;28;20041;-85
2023/08/11 08:20:04;;;;;;;3.20;2.20;;;;;;;;;;5051712;28;20481;-85
2023/08/11 08:22:32;;;;;;;3.78;2.40;;;;;;;;;;5051460;28;20059;-84
2023/08/11 08:24:58;;;;;;;3.13;2.42;;;;;;;;;;5050048;28;20040;-83
2023/08/11 08:27:24;;;;;;;5.22;2.40;;;;;;;;;;5031175;28;20040;-84
2023/08/11 08:29:53;;;;;;;2.83;2.22;;;;;;;;;;5051938;28;20111;-85
2023/08/11 08:32:22;;;;;;;4.10;2.20;;;;;;;;;;5051628;28;20485;-84
2023/08/11 08:34:48;;;;;;;3.22;2.35;;;;;;;;;;5052345;28;20027;-86
2023/08/11 08:37:17;;;;;;;3.78;2.17;;;;;;;;;;5053860;28;20036;-84
2023/08/11 08:39:43;;;;;;;4.35;2.38;;;;;;;;;;5052345;28;20460;-86
2023/08/11 08:42:10;;;;;;;8.65;2.70;;;;;;;;;;5052703;28;20032;-85
2023/08/11 08:44:37;;;;;;;4.28;2.30;;;;;;;;;;5051959;28;20048;-85
2023/08/11 08:47:06;;;;;;;3.42;2.30;;;;;;;;;;5054555;28;20041;-84
2023/08/11 08:49:32;;;;;;;8.57;2.45;;;;;;;;;;5052777;28;20025;-84
2023/08/11 08:51:58;;;;;;;3.97;2.22;;;;;;;;;;5053093;28;20374;-83
2023/08/11 08:54:24;;;;;;;4.43;2.25;;;;;;;;;;5051170;28;20047;-86
2023/08/11 08:56:52;;;;;;;4.45;2.33;;;;;;;;;;5050636;28;20045;-84
2023/08/11 08:59:17;;;;;;;5.25;2.28;;;;;;;;;;5050982;28;20036;-84
2023/08/11 09:01:43;;;;;;;5.88;2.92;;;;;;;;;;5050704;28;20037;-85
2023/08/11 09:04:09;;;;;;;4.75;2.22;;;;;;;;;;5047612;28;20068;-84
2023/08/11 09:06:35;;;;;;;3.00;2.42;;;;;;;;;;5051317;28;20037;-85
2023/08/11 09:09:01;;;;;;;3.42;2.20;;;;;;;;;;5048928;28;20063;-85
2023/08/11 09:11:27;;;;;;;3.10;2.45;;;;;;;;;;5043506;28;20039;-85
2023/08/11 09:13:53;;;;;;;3.28;2.50;;;;;;;;;;5050812;28;20116;-85
2023/08/11 09:16:23;;;;;;;4.78;2.40;;;;;;;;;;5050597;28;20483;-85
2023/08/11 09:18:49;;;;;;;3.70;2.30;;;;;;;;;;5050092;28;20029;-87
2023/08/11 09:21:14;;;;;;;3.78;2.50;;;;;;;;;;5050849;28;20533;-85
2023/08/11 09:23:43;;;;;;;3.72;2.47;;;;;;;;;;5050795;28;20123;-84
2023/08/11 09:26:09;;;;;;;5.97;2.40;;;;;;;;;;5050463;28;20104;-84
2023/08/11 09:28:35;;;;;;;2.90;2.40;;;;;;;;;;5050373;28;20025;-85
2023/08/11 09:31:00;;;;;;;2.90;2.35;;;;;;;;;;5050688;28;20033;-85
2023/08/11 09:33:26;;;;;;;3.22;2.30;;;;;;;;;;5049121;28;20067;-85
2023/08/11 09:35:53;;;;;;;5.82;2.58;;;;;;;;;;5052461;28;20029;-85
2023/08/11 09:38:19;;;;;;;3.55;2.25;;;;;;;;;;5050211;28;20041;-86
2023/08/11 09:40:47;;;;;;;3.22;2.30;;;;;;;;;;5050402;28;20112;-85
2023/08/11 09:43:13;;;;;;;3.50;2.20;;;;;;;;;;5050973;28;20039;-85
2023/08/11 09:45:38;;;;;;;2.97;2.25;;;;;;;;;;5050842;28;20049;-85
2023/08/11 09:48:04;;;;;;;6.10;2.30;;;;;;;;;;5050412;28;20043;-85
2023/08/11 09:50:33;;;;;;;3.42;2.10;;;;;;;;;;5049313;28;20039;-84
2023/08/11 09:53:00;;;;;;;5.05;2.50;;;;;;;;;;5048896;28;20025;-85
2023/08/11 09:55:29;;;;;;;3.08;2.22;;;;;;;;;;5048733;28;20032;-85
2023/08/11 09:57:57;;;;;;;3.78;2.70;;;;;;;;;;5050537;28;20052;-85
2023/08/11 10:00:23;;;;;;;3.28;2.20;;;;;;;;;;5050330;28;20476;-85
2023/08/11 10:03:06;;;;;;;3.20;2.30;;;;;;;;;;5049224;28;20040;-85
2023/08/11 10:05:33;;;;;;;;;;;;;;;;;;5050748;28;20435;-86
2023/08/11 10:08:02;;;;;;;3.38;2.17;;;;;;;;;;5049922;28;19912;-85
2023/08/11 10:10:31;;;;;;;4.05;2.00;;;;;;;;;;5050139;28;20560;-85
2023/08/11 10:13:03;;;;;;;3.20;2.40;;;;;;;;;;5048392;28;20025;-85
2023/08/11 10:15:30;;;;;;;4.63;2.45;;;;;;;;;;5050389;28;20037;-85
2023/08/11 10:17:56;;;;;;;4.30;2.25;;;;;;;;;;5049690;28;20021;-85
2023/08/11 10:20:21;;;;;;;3.35;2.20;;;;;;;;;;5049921;28;20423;-85
2023/08/11 10:22:49;;;;;;;2.58;2.30;;;;;;;;;;5049721;28;20055;-86
2023/08/11 10:25:15;;;;;;;3.90;2.42;;;;;;;;;;5049731;28;20434;-85
2023/08/11 10:27:42;;;;;;;4.00;2.50;;;;;;;;;;5051950;28;20029;-85
2023/08/11 10:30:10;;;;;;;6.50;2.70;;;;;;;;;;5065151;28;20025;-85
2023/08/11 10:32:35;;;;;;;4.82;2.78;;;;;;;;;;5053378;28;20483;-85
2023/08/11 10:35:01;;;;;;;3.85;2.42;;;;;;;;;;5053115;28;20074;-85
2023/08/11 10:37:35;;;;;;;4.93;2.53;;;;;;;;;;5052982;28;20064;-85
2023/08/11 10:40:04;;;;;;;5.72;2.30;;;;;;;;;;5053683;28;20033;-85
2023/08/11 10:42:30;;;;;;;4.05;2.25;;;;;;;;;;5066635;28;20385;-85
2023/08/11 10:45:10;;;;;;;3.42;2.30;;;;;;;;;;5053714;28;20040;-85
2023/08/11 10:47:57;;;;;;;4.35;2.30;;;;;;;;;;5051871;28;20044;-85
2023/08/11 10:50:23;;;;;;;4.75;2.28;;;;;;;;;;5052371;28;20048;-85
2023/08/11 10:53:17;;;;;;;4.53;2.42;;;;;;;;;;5053270;28;20037;-87
2023/08/11 10:55:59;;;;;;;3.92;2.53;;;;;;;;;;5052335;28;20739;-87
2023/08/11 10:58:25;;;;;;;3.33;2.22;;;;;;;;;;5051982;28;20048;-87
2023/08/11 11:00:51;;;;;;;3.35;1.90;;;;;;;;;;5050402;28;20041;-87
2023/08/11 11:03:17;;;;;;;3.25;2.30;;;;;;;;;;5053205;28;20040;-86
2023/08/11 11:05:43;;;;;;;2.65;2.03;;;;;;;;;;5051319;28;20035;-86
2023/08/11 11:08:09;;;;;;;3.50;2.40;;;;;;;;;;5052562;28;20037;-86
2023/08/11 11:10:34;;;;;;;4.28;2.40;;;;;;;;;;5050689;28;20098;-86
2023/08/11 11:13:00;;;;;;;5.70;2.15;;;;;;;;;;5054658;28;20041;-89
2023/08/11 11:15:32;;;;;;;4.40;2.30;;;;;;;;;;5052463;28;20029;-88
2023/08/11 11:17:59;;;;;;;2.60;2.10;;;;;;;;;;5050885;28;20044;-87
2023/08/11 11:20:26;;;;;;;5.60;2.03;;;;;;;;;;5052627;28;20037;-88
2023/08/11 11:22:51;;;;;;;4.03;2.30;;;;;;;;;;5045517;28;20476;-88
2023/08/11 11:25:18;;;;;;;3.60;2.35;;;;;;;;;;5052525;28;20087;-87
2023/08/11 11:27:44;;;;;;;2.63;2.03;;;;;;;;;;5052829;28;20051;-88
2023/08/11 11:30:10;;;;;;;3.50;2.05;;;;;;;;;;5053465;28;20029;-87
2023/08/11 11:32:37;;;;;;;3.80;2.30;;;;;;;;;;5054046;28;20125;-88
2023/08/11 11:35:05;;;;;;;4.68;1.92;;;;;;;;;;5055966;28;20503;-88
2023/08/11 11:37:33;;;;;;;2.97;2.28;;;;;;;;;;5055525;28;20404;-87
2023/08/11 11:39:59;;;;;;;3.17;2.13;;;;;;;;;;5059178;28;20040;-88
2023/08/11 11:42:30;;;;;;;6.50;2.40;;;;;;;;;;5055432;28;20028;-88
2023/08/11 11:44:57;;;;;;;4.28;2.05;;;;;;;;;;5056149;28;20045;-88
2023/08/11 11:47:23;;;;;;;4.20;2.00;;;;;;;;;;5054123;28;20037;-88
2023/08/11 11:49:55;;;;;;;2.80;2.10;;;;;;;;;;5053679;28;20407;-88
2023/08/11 11:52:21;;;;;;;3.80;2.10;;;;;;;;;;5050896;28;20098;-87
2023/08/11 11:54:54;;;;;;;3.45;2.00;;;;;;;;;;5052135;28;20045;-89
2023/08/11 11:57:23;;;;;;;2.60;1.85;;;;;;;;;;5050815;28;20120;-87
2023/08/11 11:59:53;;;;;;;3.00;2.08;;;;;;;;;;5052593;28;20488;-88
2023/08/11 12:02:19;;;;;;;2.83;1.90;;;;;;;;;;5052022;28;20032;-86
2023/08/11 12:04:47;;;;;;;4.10;1.80;;;;;;;;;;5052219;28;20036;-87
2023/08/11 12:07:27;;;;;;;3.33;1.98;;;;;;;;;;5053019;28;20496;-87
2023/08/11 12:09:53;;;;;;;3.30;1.80;;;;;;;;;;5052403;28;20064;-87
2023/08/11 12:12:19;;;;;;;2.78;1.90;;;;;;;;;;5053185;28;20044;-87
2023/08/11 12:14:44;;;;;;;3.00;1.95;;;;;;;;;;5054266;28;20153;-87
2023/08/11 12:17:10;;;;;;;3.10;1.63;;;;;;;;;;5049834;28;20086;-85
2023/08/11 12:19:35;;;;;;;3.30;1.80;;;;;;;;;;5052185;28;20031;-87
2023/08/11 12:22:01;;;;;;;2.70;1.90;;;;;;;;;;5054322;28;20041;-87
2023/08/11 12:24:27;;;;;;;3.97;1.73;;;;;;;;;;5052763;28;20035;-87
2023/08/11 12:26:52;;;;;;;2.83;1.92;;;;;;;;;;5051142;28;20132;-85
2023/08/11 12:29:18;;;;;;;1.95;1.60;;;;;;;;;;5051586;28;20028;-86
2023/08/11 12:31:43;;;;;;;9.50;2.08;;;;;;;;;;5051156;28;20108;-86
2023/08/11 12:34:09;;;;;;;2.10;1.67;;;;;;;;;;5052238;28;20132;-86
2023/08/11 12:36:34;;;;;;;5.68;1.67;;;;;;;;;;5050659;28;20108;-86
2023/08/11 12:38:59;;;;;;;3.88;1.60;;;;;;;;;;5053999;28;20135;-86
2023/08/11 12:41:25;;;;;;;2.22;1.73;;;;;;;;;;5053692;28;20044;-86
2023/08/11 12:43:50;;;;;;;3.58;1.92;;;;;;;;;;5053704;28;20056;-87
2023/08/11 12:46:16;;;;;;;4.65;1.60;;;;;;;;;;5059731;28;20047;-88
2023/08/11 12:48:42;;;;;;;4.05;1.63;;;;;;;;;;5052776;28;20094;-86
2023/08/11 12:51:07;;;;;;;4.63;1.60;;;;;;;;;;5050772;28;20068;-86
2023/08/11 12:53:33;;;;;;;2.50;1.70;;;;;;;;;;5050801;28;20044;-87
2023/08/11 12:55:58;;;;;;;3.75;1.88;;;;;;;;;;5056056;28;20037;-86
2023/08/11 12:58:24;;;;;;;4.32;2.10;;;;;;;;;;5048089;28;20037;-87
2023/08/11 13:00:50;;;;;;;2.25;1.63;;;;;;;;;;5068576;23;20048;-87
2023/08/11 13:03:15;;;;;;;3.58;1.92;;;;;;;;;;5033704;28;20021;-83
2023/08/11 13:05:41;;;;;;;3.55;1.77;;;;;;;;;;5025191;28;20614;-84
2023/08/11 13:08:06;;;;;;;3.70;1.88;;;;;;;;;;5020074;28;20115;-83
2023/08/11 13:10:32;;;;;;;4.93;2.20;;;;;;;;;;5036549;28;20119;-85
2023/08/11 13:12:57;;;;;;;4.03;1.90;;;;;;;;;;5039865;28;20021;-84
2023/08/11 13:15:23;;;;;;;3.22;1.80;;;;;;;;;;5031941;28;20033;-85
2023/08/11 13:17:48;;;;;;;2.30;1.90;;;;;;;;;;5032988;28;20087;-84
2023/08/11 13:20:15;;;;;;;3.28;2.10;;;;;;;;;;5030144;28;20045;-84
2023/08/11 13:22:41;;;;;;;4.30;2.13;;;;;;;;;;5038274;28;20248;-83
2023/08/11 13:25:07;;;;;;;4.00;2.30;;;;;;;;;;5031854;28;20296;-86
2023/08/11 13:27:32;;;;;;;3.75;2.10;;;;;;;;;;5029579;28;20021;-84
2023/08/11 13:29:58;;;;;;;2.08;1.88;;;;;;;;;;5034310;28;20370;-85
2023/08/11 13:32:23;;;;;;;3.08;2.28;;;;;;;;;;5026240;28;20034;-86
2023/08/11 13:34:49;;;;;;;2.78;2.03;;;;;;;;;;5035187;28;20038;-85
2023/08/11 13:37:15;;;;;;;3.25;2.05;;;;;;;;;;5029518;28;20545;-85
2023/08/11 13:39:40;;;;;;;3.63;2.13;;;;;;;;;;5038580;28;20037;-86
2023/08/11 13:42:06;;;;;;;4.03;2.00;;;;;;;;;;5031053;28;20032;-84
2023/08/11 13:44:32;;;;;;;5.10;2.00;;;;;;;;;;5031547;28;20111;-84
2023/08/11 13:46:58;;;;;;;4.22;2.00;;;;;;;;;;5035015;28;20111;-84
2023/08/11 13:49:24;;;;;;;3.75;2.15;;;;;;;;;;5044471;28;20044;-84
2023/08/11 13:51:50;;;;;;;4.07;1.85;;;;;;;;;;5037310;28;20033;-86
2023/08/11 13:54:15;;;;;;;3.50;1.80;;;;;;;;;;5026891;28;20370;-85
2023/08/11 13:56:41;;;;;;;2.78;1.70;;;;;;;;;;5022295;28;20037;-84
2023/08/11 13:59:06;;;;;;;4.00;1.75;;;;;;;;;;5047822;28;20033;-84
2023/08/11 14:01:34;;;;;;;3.90;1.83;;;;;;;;;;5041287;28;20037;-82
2023/08/11 14:03:59;;;;;;;2.33;1.73;;;;;;;;;;5024295;28;20046;-84
2023/08/11 14:06:25;;;;;;;3.30;1.80;;;;;;;;;;5021951;28;20033;-84
2023/08/11 14:08:50;;;;;;;2.40;1.55;;;;;;;;;;5039068;28;20049;-85
2023/08/11 14:11:21;;;;;;;2.40;1.67;;;;;;;;;;5044662;28;20037;-85
2023/08/11 14:13:47;;;;;;;3.90;1.70;;;;;;;;;;5025771;28;20041;-85
2023/08/11 14:16:12;;;;;;;1.90;1.60;;;;;;;;;;5019005;28;20036;-84
2023/08/11 14:18:43;;;;;;;2.40;1.98;;;;;;;;;;5035839;28;20374;-82
2023/08/11 14:21:09;;;;;;;3.80;1.70;;;;;;;;;;5042016;28;20074;-84
2023/08/11 14:23:34;;;;;;;2.75;1.65;;;;;;;;;;5037905;28;20485;-86
2023/08/11 14:26:00;;;;;;;2.40;1.70;;;;;;;;;;5026883;28;20557;-84
2023/08/11 14:28:26;;;;;;;2.05;1.52;;;;;;;;;;5031503;28;20038;-83
2023/08/11 14:30:52;;;;;;;2.08;1.58;;;;;;;;;;5026522;28;20037;-84
2023/08/11 14:33:17;;;;;;;2.15;1.58;;;;;;;;;;5039969;28;20064;-84
2023/08/11 14:35:43;;;;;;;2.90;1.50;;;;;;;;;;5035047;28;20040;-84
2023/08/11 14:38:08;;;;;;;1.67;1.50;;;;;;;;;;5040594;28;20041;-82
2023/08/11 14:40:34;;;;;;;1.80;1.45;;;;;;;;;;5038699;28;20041;-85